sensor_id;sensor_type;location;lat;lon;timestamp;P1;durP1;ratioP1;P2;durP2;ratioP2
60722;SDS011;46574;52.818;6.516;2024-01-16T00:00:11;10.32;;;1.60;;
60722;SDS011;46574;52.818;6.516;2024-01-16T00:02:37;6.70;;;1.42;;
60722;SDS011;46574;52.818;6.516;2024-01-16T00:05:03;7.88;;;1.92;;
60722;SDS011;46574;52.818;6.516;2024-01-16T00:07:29;8.43;;;1.77;;
60722;SDS011;46574;52.818;6.516;2024-01-16T00:09:55;7.13;;;1.50;;
60722;SDS011;46574;52.818;6.516;2024-01-16T00:12:20;7.82;;;2.08;;
60722;SDS011;46574;52.818;6.516;2024-01-16T00:14:46;3.58;;;1.20;;
60722;SDS011;46574;52.818;6.516;2024-01-16T00:17:11;5.78;;;1.42;;
60722;SDS011;46574;52.818;6.516;2024-01-16T00:19:37;8.27;;;1.38;;
60722;SDS011;46574;52.818;6.516;2024-01-16T00:22:03;5.35;;;1.30;;
60722;SDS011;46574;52.818;6.516;2024-01-16T00:24:30;9.38;;;1.83;;
60722;SDS011;46574;52.818;6.516;2024-01-16T00:26:55;6.65;;;1.40;;
60722;SDS011;46574;52.818;6.516;2024-01-16T00:29:21;6.30;;;1.27;;
60722;SDS011;46574;52.818;6.516;2024-01-16T00:31:47;8.05;;;1.20;;
60722;SDS011;46574;52.818;6.516;2024-01-16T00:34:12;5.72;;;1.38;;
60722;SDS011;46574;52.818;6.516;2024-01-16T00:36:38;6.80;;;1.52;;
60722;SDS011;46574;52.818;6.516;2024-01-16T00:39:04;6.43;;;1.58;;
60722;SDS011;46574;52.818;6.516;2024-01-16T00:41:30;6.80;;;1.17;;
60722;SDS011;46574;52.818;6.516;2024-01-16T00:43:55;6.18;;;1.13;;
60722;SDS011;46574;52.818;6.516;2024-01-16T00:46:21;5.63;;;1.13;;
60722;SDS011;46574;52.818;6.516;2024-01-16T00:48:47;5.65;;;1.33;;
60722;SDS011;46574;52.818;6.516;2024-01-16T00:51:13;4.60;;;1.33;;
60722;SDS011;46574;52.818;6.516;2024-01-16T00:53:42;4.13;;;1.38;;
60722;SDS011;46574;52.818;6.516;2024-01-16T00:56:08;5.40;;;1.10;;
60722;SDS011;46574;52.818;6.516;2024-01-16T00:58:34;4.38;;;1.52;;
60722;SDS011;46574;52.818;6.516;2024-01-16T01:01:00;3.83;;;1.20;;
60722;SDS011;46574;52.818;6.516;2024-01-16T01:03:25;5.97;;;1.00;;
60722;SDS011;46574;52.818;6.516;2024-01-16T01:05:51;4.55;;;1.17;;
60722;SDS011;46574;52.818;6.516;2024-01-16T01:08:17;2.97;;;0.85;;
60722;SDS011;46574;52.818;6.516;2024-01-16T01:10:42;5.60;;;1.05;;
60722;SDS011;46574;52.818;6.516;2024-01-16T01:13:08;3.00;;;0.88;;
60722;SDS011;46574;52.818;6.516;2024-01-16T01:15:34;4.53;;;1.10;;
60722;SDS011;46574;52.818;6.516;2024-01-16T01:17:59;3.15;;;1.10;;
60722;SDS011;46574;52.818;6.516;2024-01-16T01:20:25;5.82;;;1.45;;
60722;SDS011;46574;52.818;6.516;2024-01-16T01:22:51;5.60;;;1.13;;
60722;SDS011;46574;52.818;6.516;2024-01-16T01:25:16;2.90;;;1.10;;
60722;SDS011;46574;52.818;6.516;2024-01-16T01:27:42;6.88;;;1.35;;
60722;SDS011;46574;52.818;6.516;2024-01-16T01:30:08;3.80;;;1.30;;
60722;SDS011;46574;52.818;6.516;2024-01-16T01:32:38;4.65;;;1.33;;
60722;SDS011;46574;52.818;6.516;2024-01-16T01:35:04;8.82;;;1.45;;
60722;SDS011;46574;52.818;6.516;2024-01-16T01:37:30;4.65;;;1.08;;
60722;SDS011;46574;52.818;6.516;2024-01-16T01:39:56;4.55;;;1.10;;
60722;SDS011;46574;52.818;6.516;2024-01-16T01:42:22;3.88;;;1.08;;
60722;SDS011;46574;52.818;6.516;2024-01-16T01:44:48;6.00;;;1.42;;
60722;SDS011;46574;52.818;6.516;2024-01-16T01:47:14;4.88;;;1.05;;
60722;SDS011;46574;52.818;6.516;2024-01-16T01:49:40;3.33;;;1.10;;
60722;SDS011;46574;52.818;6.516;2024-01-16T01:52:06;4.30;;;1.30;;
60722;SDS011;46574;52.818;6.516;2024-01-16T01:54:33;4.78;;;1.30;;
60722;SDS011;46574;52.818;6.516;2024-01-16T01:57:01;2.88;;;1.08;;
60722;SDS011;46574;52.818;6.516;2024-01-16T01:59:27;6.72;;;1.20;;
60722;SDS011;46574;52.818;6.516;2024-01-16T02:01:54;8.32;;;1.20;;
60722;SDS011;46574;52.818;6.516;2024-01-16T02:04:21;7.47;;;1.40;;
60722;SDS011;46574;52.818;6.516;2024-01-16T02:06:47;6.78;;;1.30;;
60722;SDS011;46574;52.818;6.516;2024-01-16T02:09:13;4.55;;;1.08;;
60722;SDS011;46574;52.818;6.516;2024-01-16T02:11:42;5.63;;;1.73;;
60722;SDS011;46574;52.818;6.516;2024-01-16T02:14:08;4.65;;;1.27;;
60722;SDS011;46574;52.818;6.516;2024-01-16T02:16:38;5.78;;;1.10;;
60722;SDS011;46574;52.818;6.516;2024-01-16T02:19:05;4.32;;;0.88;;
60722;SDS011;46574;52.818;6.516;2024-01-16T02:21:35;6.22;;;1.17;;
60722;SDS011;46574;52.818;6.516;2024-01-16T02:24:05;3.83;;;1.02;;
60722;SDS011;46574;52.818;6.516;2024-01-16T02:26:32;5.63;;;1.40;;
60722;SDS011;46574;52.818;6.516;2024-01-16T02:29:00;5.93;;;1.23;;
60722;SDS011;46574;52.818;6.516;2024-01-16T02:31:26;5.70;;;1.50;;
60722;SDS011;46574;52.818;6.516;2024-01-16T02:33:52;4.60;;;1.00;;
60722;SDS011;46574;52.818;6.516;2024-01-16T02:36:18;8.23;;;1.20;;
60722;SDS011;46574;52.818;6.516;2024-01-16T02:38:43;6.53;;;1.20;;
60722;SDS011;46574;52.818;6.516;2024-01-16T02:41:09;5.93;;;1.27;;
60722;SDS011;46574;52.818;6.516;2024-01-16T02:43:36;5.55;;;0.90;;
60722;SDS011;46574;52.818;6.516;2024-01-16T02:46:02;3.50;;;1.05;;
60722;SDS011;46574;52.818;6.516;2024-01-16T02:48:28;7.88;;;1.10;;
60722;SDS011;46574;52.818;6.516;2024-01-16T02:50:54;4.38;;;1.20;;
60722;SDS011;46574;52.818;6.516;2024-01-16T02:53:20;2.15;;;0.80;;
60722;SDS011;46574;52.818;6.516;2024-01-16T02:55:45;4.30;;;0.93;;
60722;SDS011;46574;52.818;6.516;2024-01-16T02:58:11;4.38;;;1.15;;
60722;SDS011;46574;52.818;6.516;2024-01-16T03:00:36;2.22;;;0.80;;
60722;SDS011;46574;52.818;6.516;2024-01-16T03:03:02;8.40;;;1.30;;
60722;SDS011;46574;52.818;6.516;2024-01-16T03:05:28;6.40;;;1.20;;
60722;SDS011;46574;52.818;6.516;2024-01-16T03:07:54;8.65;;;2.08;;
60722;SDS011;46574;52.818;6.516;2024-01-16T03:10:20;5.35;;;1.20;;
60722;SDS011;46574;52.818;6.516;2024-01-16T03:12:45;3.17;;;0.90;;
60722;SDS011;46574;52.818;6.516;2024-01-16T03:15:11;5.18;;;1.10;;
60722;SDS011;46574;52.818;6.516;2024-01-16T03:17:37;6.97;;;1.13;;
60722;SDS011;46574;52.818;6.516;2024-01-16T03:20:02;4.22;;;1.10;;
60722;SDS011;46574;52.818;6.516;2024-01-16T03:22:28;5.70;;;1.00;;
60722;SDS011;46574;52.818;6.516;2024-01-16T03:24:54;4.28;;;0.88;;
60722;SDS011;46574;52.818;6.516;2024-01-16T03:27:20;4.88;;;0.80;;
60722;SDS011;46574;52.818;6.516;2024-01-16T03:29:45;4.20;;;1.05;;
60722;SDS011;46574;52.818;6.516;2024-01-16T03:32:11;3.70;;;1.08;;
60722;SDS011;46574;52.818;6.516;2024-01-16T03:34:36;4.72;;;1.02;;
60722;SDS011;46574;52.818;6.516;2024-01-16T03:37:02;4.97;;;1.02;;
60722;SDS011;46574;52.818;6.516;2024-01-16T03:39:28;6.10;;;1.13;;
60722;SDS011;46574;52.818;6.516;2024-01-16T03:41:53;3.20;;;0.73;;
60722;SDS011;46574;52.818;6.516;2024-01-16T03:44:19;4.18;;;1.00;;
60722;SDS011;46574;52.818;6.516;2024-01-16T03:46:45;5.47;;;1.20;;
60722;SDS011;46574;52.818;6.516;2024-01-16T03:49:10;3.35;;;0.90;;
60722;SDS011;46574;52.818;6.516;2024-01-16T03:51:36;4.60;;;0.93;;
60722;SDS011;46574;52.818;6.516;2024-01-16T03:54:01;5.45;;;0.90;;
60722;SDS011;46574;52.818;6.516;2024-01-16T03:56:28;4.75;;;1.17;;
60722;SDS011;46574;52.818;6.516;2024-01-16T03:58:54;5.00;;;0.80;;
60722;SDS011;46574;52.818;6.516;2024-01-16T04:01:29;2.72;;;0.98;;
60722;SDS011;46574;52.818;6.516;2024-01-16T04:03:58;4.63;;;1.10;;
60722;SDS011;46574;52.818;6.516;2024-01-16T04:06:24;6.60;;;1.40;;
60722;SDS011;46574;52.818;6.516;2024-01-16T04:08:50;5.80;;;1.20;;
60722;SDS011;46574;52.818;6.516;2024-01-16T04:11:15;6.85;;;1.58;;
60722;SDS011;46574;52.818;6.516;2024-01-16T04:13:41;7.20;;;1.33;;
60722;SDS011;46574;52.818;6.516;2024-01-16T04:16:07;5.93;;;1.27;;
60722;SDS011;46574;52.818;6.516;2024-01-16T04:18:36;4.97;;;1.45;;
60722;SDS011;46574;52.818;6.516;2024-01-16T04:21:05;3.65;;;1.60;;
60722;SDS011;46574;52.818;6.516;2024-01-16T04:23:31;6.22;;;1.20;;
60722;SDS011;46574;52.818;6.516;2024-01-16T04:25:57;3.88;;;1.35;;
60722;SDS011;46574;52.818;6.516;2024-01-16T04:28:23;4.68;;;1.10;;
60722;SDS011;46574;52.818;6.516;2024-01-16T04:30:49;6.18;;;1.50;;
60722;SDS011;46574;52.818;6.516;2024-01-16T04:33:15;6.43;;;1.10;;
60722;SDS011;46574;52.818;6.516;2024-01-16T04:35:40;9.10;;;1.40;;
60722;SDS011;46574;52.818;6.516;2024-01-16T04:38:06;7.35;;;1.85;;
60722;SDS011;46574;52.818;6.516;2024-01-16T04:40:32;6.53;;;1.30;;
60722;SDS011;46574;52.818;6.516;2024-01-16T04:42:58;5.03;;;1.30;;
60722;SDS011;46574;52.818;6.516;2024-01-16T04:45:24;2.40;;;1.00;;
60722;SDS011;46574;52.818;6.516;2024-01-16T04:47:50;5.68;;;1.58;;
60722;SDS011;46574;52.818;6.516;2024-01-16T04:50:15;3.97;;;1.10;;
60722;SDS011;46574;52.818;6.516;2024-01-16T04:52:41;6.60;;;1.40;;
60722;SDS011;46574;52.818;6.516;2024-01-16T04:55:09;7.68;;;2.08;;
60722;SDS011;46574;52.818;6.516;2024-01-16T04:57:35;4.28;;;1.00;;
60722;SDS011;46574;52.818;6.516;2024-01-16T05:00:00;7.03;;;1.88;;
60722;SDS011;46574;52.818;6.516;2024-01-16T05:02:26;8.73;;;1.63;;
60722;SDS011;46574;52.818;6.516;2024-01-16T05:04:52;5.88;;;1.10;;
60722;SDS011;46574;52.818;6.516;2024-01-16T05:07:18;5.78;;;1.30;;
60722;SDS011;46574;52.818;6.516;2024-01-16T05:09:45;5.53;;;1.10;;
60722;SDS011;46574;52.818;6.516;2024-01-16T05:12:11;5.43;;;1.15;;
60722;SDS011;46574;52.818;6.516;2024-01-16T05:14:37;6.15;;;1.08;;
60722;SDS011;46574;52.818;6.516;2024-01-16T05:17:03;5.82;;;1.02;;
60722;SDS011;46574;52.818;6.516;2024-01-16T05:19:29;5.18;;;1.40;;
60722;SDS011;46574;52.818;6.516;2024-01-16T05:21:54;7.22;;;1.23;;
60722;SDS011;46574;52.818;6.516;2024-01-16T05:24:20;4.97;;;1.20;;
60722;SDS011;46574;52.818;6.516;2024-01-16T05:26:46;5.30;;;1.73;;
60722;SDS011;46574;52.818;6.516;2024-01-16T05:29:11;7.03;;;1.20;;
60722;SDS011;46574;52.818;6.516;2024-01-16T05:31:40;5.82;;;1.17;;
60722;SDS011;46574;52.818;6.516;2024-01-16T05:34:07;5.30;;;1.35;;
60722;SDS011;46574;52.818;6.516;2024-01-16T05:36:33;3.97;;;1.35;;
60722;SDS011;46574;52.818;6.516;2024-01-16T05:38:59;4.72;;;1.48;;
60722;SDS011;46574;52.818;6.516;2024-01-16T05:41:24;5.72;;;1.35;;
60722;SDS011;46574;52.818;6.516;2024-01-16T05:43:50;7.20;;;1.67;;
60722;SDS011;46574;52.818;6.516;2024-01-16T05:46:16;5.20;;;1.40;;
60722;SDS011;46574;52.818;6.516;2024-01-16T05:48:43;5.50;;;1.42;;
60722;SDS011;46574;52.818;6.516;2024-01-16T05:51:08;3.65;;;1.40;;
60722;SDS011;46574;52.818;6.516;2024-01-16T05:53:34;7.30;;;1.80;;
60722;SDS011;46574;52.818;6.516;2024-01-16T05:56:00;5.75;;;1.90;;
60722;SDS011;46574;52.818;6.516;2024-01-16T05:58:25;4.85;;;1.48;;
60722;SDS011;46574;52.818;6.516;2024-01-16T06:00:51;5.68;;;1.77;;
60722;SDS011;46574;52.818;6.516;2024-01-16T06:03:17;3.72;;;1.33;;
60722;SDS011;46574;52.818;6.516;2024-01-16T06:05:42;4.43;;;1.50;;
60722;SDS011;46574;52.818;6.516;2024-01-16T06:08:08;5.13;;;1.25;;
60722;SDS011;46574;52.818;6.516;2024-01-16T06:10:34;4.15;;;1.52;;
60722;SDS011;46574;52.818;6.516;2024-01-16T06:13:00;2.35;;;1.25;;
60722;SDS011;46574;52.818;6.516;2024-01-16T06:15:25;4.03;;;1.50;;
60722;SDS011;46574;52.818;6.516;2024-01-16T06:17:51;5.43;;;1.60;;
60722;SDS011;46574;52.818;6.516;2024-01-16T06:20:16;3.90;;;1.80;;
60722;SDS011;46574;52.818;6.516;2024-01-16T06:22:42;4.07;;;1.98;;
60722;SDS011;46574;52.818;6.516;2024-01-16T06:25:08;4.80;;;2.00;;
60722;SDS011;46574;52.818;6.516;2024-01-16T06:27:33;8.02;;;2.50;;
60722;SDS011;46574;52.818;6.516;2024-01-16T06:29:59;6.60;;;2.72;;
60722;SDS011;46574;52.818;6.516;2024-01-16T06:32:25;8.25;;;2.72;;
60722;SDS011;46574;52.818;6.516;2024-01-16T06:34:50;5.18;;;2.42;;
60722;SDS011;46574;52.818;6.516;2024-01-16T06:37:16;7.35;;;2.97;;
60722;SDS011;46574;52.818;6.516;2024-01-16T06:39:42;4.38;;;2.63;;
60722;SDS011;46574;52.818;6.516;2024-01-16T06:42:07;6.40;;;3.00;;
60722;SDS011;46574;52.818;6.516;2024-01-16T06:44:34;9.10;;;3.10;;
60722;SDS011;46574;52.818;6.516;2024-01-16T06:46:59;8.13;;;2.78;;
60722;SDS011;46574;52.818;6.516;2024-01-16T06:49:25;7.38;;;3.30;;
60722;SDS011;46574;52.818;6.516;2024-01-16T06:51:52;5.20;;;3.28;;
60722;SDS011;46574;52.818;6.516;2024-01-16T06:54:17;7.20;;;3.80;;
60722;SDS011;46574;52.818;6.516;2024-01-16T06:56:45;7.85;;;3.65;;
60722;SDS011;46574;52.818;6.516;2024-01-16T06:59:11;9.07;;;4.00;;
60722;SDS011;46574;52.818;6.516;2024-01-16T07:01:37;9.77;;;4.15;;
60722;SDS011;46574;52.818;6.516;2024-01-16T07:04:03;8.15;;;4.20;;
60722;SDS011;46574;52.818;6.516;2024-01-16T07:06:28;7.80;;;3.72;;
60722;SDS011;46574;52.818;6.516;2024-01-16T07:08:54;8.27;;;3.78;;
60722;SDS011;46574;52.818;6.516;2024-01-16T07:11:19;6.60;;;3.58;;
60722;SDS011;46574;52.818;6.516;2024-01-16T07:13:46;7.88;;;4.20;;
60722;SDS011;46574;52.818;6.516;2024-01-16T07:16:11;6.88;;;3.70;;
60722;SDS011;46574;52.818;6.516;2024-01-16T07:18:38;8.85;;;3.97;;
60722;SDS011;46574;52.818;6.516;2024-01-16T07:21:04;7.75;;;4.20;;
60722;SDS011;46574;52.818;6.516;2024-01-16T07:23:30;12.02;;;4.57;;
60722;SDS011;46574;52.818;6.516;2024-01-16T07:25:55;8.40;;;4.35;;
60722;SDS011;46574;52.818;6.516;2024-01-16T07:28:21;7.75;;;4.38;;
60722;SDS011;46574;52.818;6.516;2024-01-16T07:30:47;7.15;;;4.28;;
60722;SDS011;46574;52.818;6.516;2024-01-16T07:33:13;7.22;;;4.38;;
60722;SDS011;46574;52.818;6.516;2024-01-16T07:35:39;8.02;;;4.05;;
60722;SDS011;46574;52.818;6.516;2024-01-16T07:38:06;7.90;;;4.40;;
60722;SDS011;46574;52.818;6.516;2024-01-16T07:40:32;9.73;;;4.63;;
60722;SDS011;46574;52.818;6.516;2024-01-16T07:42:57;10.68;;;4.07;;
60722;SDS011;46574;52.818;6.516;2024-01-16T07:45:23;10.65;;;5.10;;
60722;SDS011;46574;52.818;6.516;2024-01-16T07:47:49;8.88;;;4.35;;
60722;SDS011;46574;52.818;6.516;2024-01-16T07:50:15;9.10;;;4.82;;
60722;SDS011;46574;52.818;6.516;2024-01-16T07:52:41;7.53;;;4.78;;
60722;SDS011;46574;52.818;6.516;2024-01-16T07:55:06;9.60;;;5.05;;
60722;SDS011;46574;52.818;6.516;2024-01-16T07:57:32;9.30;;;4.85;;
60722;SDS011;46574;52.818;6.516;2024-01-16T07:59:58;6.68;;;4.45;;
60722;SDS011;46574;52.818;6.516;2024-01-16T08:02:30;10.38;;;4.85;;
60722;SDS011;46574;52.818;6.516;2024-01-16T08:04:58;9.95;;;4.90;;
60722;SDS011;46574;52.818;6.516;2024-01-16T08:07:23;8.93;;;5.03;;
60722;SDS011;46574;52.818;6.516;2024-01-16T08:09:49;9.75;;;5.05;;
60722;SDS011;46574;52.818;6.516;2024-01-16T08:12:15;10.32;;;5.05;;
60722;SDS011;46574;52.818;6.516;2024-01-16T08:14:41;9.10;;;5.57;;
60722;SDS011;46574;52.818;6.516;2024-01-16T08:17:08;9.98;;;5.13;;
60722;SDS011;46574;52.818;6.516;2024-01-16T08:19:33;8.25;;;5.20;;
60722;SDS011;46574;52.818;6.516;2024-01-16T08:21:59;9.70;;;6.00;;
60722;SDS011;46574;52.818;6.516;2024-01-16T08:24:25;10.15;;;5.93;;
60722;SDS011;46574;52.818;6.516;2024-01-16T08:26:50;12.60;;;5.93;;
60722;SDS011;46574;52.818;6.516;2024-01-16T08:29:16;11.43;;;6.00;;
60722;SDS011;46574;52.818;6.516;2024-01-16T08:31:41;11.32;;;6.95;;
60722;SDS011;46574;52.818;6.516;2024-01-16T08:34:07;10.93;;;6.00;;
60722;SDS011;46574;52.818;6.516;2024-01-16T08:36:33;12.65;;;6.78;;
60722;SDS011;46574;52.818;6.516;2024-01-16T08:38:58;11.82;;;6.60;;
60722;SDS011;46574;52.818;6.516;2024-01-16T08:41:24;12.48;;;6.55;;
60722;SDS011;46574;52.818;6.516;2024-01-16T08:43:49;13.65;;;6.68;;
60722;SDS011;46574;52.818;6.516;2024-01-16T08:46:16;14.23;;;7.05;;
60722;SDS011;46574;52.818;6.516;2024-01-16T08:48:44;12.07;;;6.40;;
60722;SDS011;46574;52.818;6.516;2024-01-16T08:51:10;12.75;;;5.95;;
60722;SDS011;46574;52.818;6.516;2024-01-16T08:53:40;12.90;;;6.35;;
60722;SDS011;46574;52.818;6.516;2024-01-16T08:56:05;10.02;;;5.72;;
60722;SDS011;46574;52.818;6.516;2024-01-16T08:58:34;10.18;;;5.82;;
60722;SDS011;46574;52.818;6.516;2024-01-16T09:01:03;9.95;;;5.53;;
60722;SDS011;46574;52.818;6.516;2024-01-16T09:03:30;11.45;;;5.78;;
60722;SDS011;46574;52.818;6.516;2024-01-16T09:05:57;10.18;;;5.85;;
60722;SDS011;46574;52.818;6.516;2024-01-16T09:08:22;11.82;;;6.28;;
60722;SDS011;46574;52.818;6.516;2024-01-16T09:10:48;11.18;;;6.75;;
60722;SDS011;46574;52.818;6.516;2024-01-16T09:13:14;12.98;;;7.00;;
60722;SDS011;46574;52.818;6.516;2024-01-16T09:15:39;13.85;;;6.97;;
60722;SDS011;46574;52.818;6.516;2024-01-16T09:18:05;15.50;;;8.30;;
60722;SDS011;46574;52.818;6.516;2024-01-16T09:20:31;13.52;;;7.97;;
60722;SDS011;46574;52.818;6.516;2024-01-16T09:22:56;14.98;;;8.65;;
60722;SDS011;46574;52.818;6.516;2024-01-16T09:25:22;15.38;;;9.13;;
60722;SDS011;46574;52.818;6.516;2024-01-16T09:27:52;13.23;;;8.52;;
60722;SDS011;46574;52.818;6.516;2024-01-16T09:30:18;15.98;;;8.70;;
60722;SDS011;46574;52.818;6.516;2024-01-16T09:32:44;15.77;;;8.82;;
60722;SDS011;46574;52.818;6.516;2024-01-16T09:35:10;14.20;;;8.93;;
60722;SDS011;46574;52.818;6.516;2024-01-16T09:37:36;12.80;;;8.15;;
60722;SDS011;46574;52.818;6.516;2024-01-16T09:40:03;11.73;;;8.40;;
60722;SDS011;46574;52.818;6.516;2024-01-16T09:42:30;15.77;;;8.70;;
60722;SDS011;46574;52.818;6.516;2024-01-16T09:44:56;16.63;;;8.85;;
60722;SDS011;46574;52.818;6.516;2024-01-16T09:47:22;13.52;;;8.15;;
60722;SDS011;46574;52.818;6.516;2024-01-16T09:49:50;15.45;;;7.70;;
60722;SDS011;46574;52.818;6.516;2024-01-16T09:52:17;11.40;;;8.05;;
60722;SDS011;46574;52.818;6.516;2024-01-16T09:54:42;12.38;;;7.32;;
60722;SDS011;46574;52.818;6.516;2024-01-16T09:57:08;11.88;;;7.88;;
60722;SDS011;46574;52.818;6.516;2024-01-16T09:59:38;10.52;;;7.07;;
60722;SDS011;46574;52.818;6.516;2024-01-16T10:02:06;12.60;;;7.57;;
60722;SDS011;46574;52.818;6.516;2024-01-16T10:04:35;11.85;;;8.32;;
60722;SDS011;46574;52.818;6.516;2024-01-16T10:07:02;10.45;;;7.32;;
60722;SDS011;46574;52.818;6.516;2024-01-16T10:09:30;12.35;;;7.38;;
60722;SDS011;46574;52.818;6.516;2024-01-16T10:11:56;11.48;;;7.57;;
60722;SDS011;46574;52.818;6.516;2024-01-16T10:14:22;9.88;;;6.97;;
60722;SDS011;46574;52.818;6.516;2024-01-16T10:16:58;9.57;;;6.93;;
60722;SDS011;46574;52.818;6.516;2024-01-16T10:19:30;10.75;;;6.22;;
60722;SDS011;46574;52.818;6.516;2024-01-16T10:22:03;8.43;;;5.45;;
60722;SDS011;46574;52.818;6.516;2024-01-16T10:24:31;7.72;;;5.28;;
60722;SDS011;46574;52.818;6.516;2024-01-16T10:27:00;5.18;;;4.18;;
60722;SDS011;46574;52.818;6.516;2024-01-16T10:29:28;7.32;;;4.60;;
60722;SDS011;46574;52.818;6.516;2024-01-16T10:31:56;6.57;;;4.18;;
60722;SDS011;46574;52.818;6.516;2024-01-16T10:34:22;6.38;;;4.20;;
60722;SDS011;46574;52.818;6.516;2024-01-16T10:36:50;6.25;;;3.97;;
60722;SDS011;46574;52.818;6.516;2024-01-16T10:39:17;5.82;;;3.33;;
60722;SDS011;46574;52.818;6.516;2024-01-16T10:41:56;5.35;;;3.20;;
60722;SDS011;46574;52.818;6.516;2024-01-16T10:46:48;4.65;;;2.55;;
60722;SDS011;46574;52.818;6.516;2024-01-16T10:49:14;8.90;;;3.13;;
60722;SDS011;46574;52.818;6.516;2024-01-16T10:51:42;4.97;;;2.60;;
60722;SDS011;46574;52.818;6.516;2024-01-16T10:54:11;6.90;;;2.80;;
60722;SDS011;46574;52.818;6.516;2024-01-16T11:01:50;4.25;;;2.22;;
60722;SDS011;46574;52.818;6.516;2024-01-16T11:04:22;5.45;;;2.30;;
60722;SDS011;46574;52.818;6.516;2024-01-16T11:06:52;5.53;;;2.22;;
60722;SDS011;46574;52.818;6.516;2024-01-16T11:09:19;5.63;;;2.13;;
60722;SDS011;46574;52.818;6.516;2024-01-16T11:11:46;3.17;;;1.75;;
60722;SDS011;46574;52.818;6.516;2024-01-16T11:14:15;3.85;;;1.90;;
60722;SDS011;46574;52.818;6.516;2024-01-16T11:16:42;8.18;;;2.00;;
60722;SDS011;46574;52.818;6.516;2024-01-16T11:19:08;3.05;;;1.30;;
60722;SDS011;46574;52.818;6.516;2024-01-16T11:21:35;3.65;;;1.60;;
60722;SDS011;46574;52.818;6.516;2024-01-16T11:24:03;6.93;;;1.53;;
60722;SDS011;46574;52.818;6.516;2024-01-16T11:26:33;4.30;;;1.48;;
60722;SDS011;46574;52.818;6.516;2024-01-16T11:31:52;7.38;;;2.03;;
60722;SDS011;46574;52.818;6.516;2024-01-16T11:37:07;5.82;;;1.88;;
60722;SDS011;46574;52.818;6.516;2024-01-16T11:39:33;6.90;;;2.00;;
60722;SDS011;46574;52.818;6.516;2024-01-16T11:41:59;3.58;;;1.88;;
60722;SDS011;46574;52.818;6.516;2024-01-16T11:44:46;5.53;;;2.40;;
60722;SDS011;46574;52.818;6.516;2024-01-16T11:47:16;6.53;;;2.85;;
60722;SDS011;46574;52.818;6.516;2024-01-16T11:49:43;6.95;;;3.17;;
60722;SDS011;46574;52.818;6.516;2024-01-16T11:52:08;7.22;;;3.10;;
60722;SDS011;46574;52.818;6.516;2024-01-16T11:54:36;5.40;;;3.20;;
60722;SDS011;46574;52.818;6.516;2024-01-16T12:02:30;9.10;;;4.07;;
60722;SDS011;46574;52.818;6.516;2024-01-16T12:05:19;6.93;;;3.90;;
60722;SDS011;46574;52.818;6.516;2024-01-16T12:07:46;7.53;;;5.10;;
60722;SDS011;46574;52.818;6.516;2024-01-16T12:10:16;10.65;;;5.78;;
60722;SDS011;46574;52.818;6.516;2024-01-16T12:12:43;12.20;;;7.07;;
60722;SDS011;46574;52.818;6.516;2024-01-16T12:15:15;11.07;;;7.70;;
60722;SDS011;46574;52.818;6.516;2024-01-16T12:20:25;16.15;;;9.73;;
60722;SDS011;46574;52.818;6.516;2024-01-16T12:23:05;13.65;;;8.85;;
60722;SDS011;46574;52.818;6.516;2024-01-16T12:25:36;13.95;;;9.13;;
60722;SDS011;46574;52.818;6.516;2024-01-16T12:30:30;13.20;;;8.80;;
60722;SDS011;46574;52.818;6.516;2024-01-16T12:33:06;16.25;;;9.82;;
60722;SDS011;46574;52.818;6.516;2024-01-16T12:35:34;15.98;;;9.00;;
60722;SDS011;46574;52.818;6.516;2024-01-16T12:38:07;15.10;;;8.57;;
60722;SDS011;46574;52.818;6.516;2024-01-16T12:40:34;13.60;;;8.35;;
60722;SDS011;46574;52.818;6.516;2024-01-16T12:43:03;14.98;;;9.27;;
60722;SDS011;46574;52.818;6.516;2024-01-16T12:45:30;13.30;;;8.48;;
60722;SDS011;46574;52.818;6.516;2024-01-16T12:47:57;11.30;;;8.85;;
60722;SDS011;46574;52.818;6.516;2024-01-16T12:50:25;9.95;;;6.75;;
60722;SDS011;46574;52.818;6.516;2024-01-16T12:53:02;12.05;;;7.22;;
60722;SDS011;46574;52.818;6.516;2024-01-16T12:55:30;11.88;;;6.28;;
60722;SDS011;46574;52.818;6.516;2024-01-16T13:01:20;10.93;;;6.53;;
60722;SDS011;46574;52.818;6.516;2024-01-16T13:03:53;7.57;;;6.40;;
60722;SDS011;46574;52.818;6.516;2024-01-16T13:06:19;10.27;;;6.60;;
60722;SDS011;46574;52.818;6.516;2024-01-16T13:08:49;7.88;;;6.22;;
60722;SDS011;46574;52.818;6.516;2024-01-16T13:11:15;12.15;;;6.22;;
60722;SDS011;46574;52.818;6.516;2024-01-16T13:13:48;8.85;;;5.50;;
60722;SDS011;46574;52.818;6.516;2024-01-16T13:16:17;7.57;;;5.20;;
60722;SDS011;46574;52.818;6.516;2024-01-16T13:18:42;9.88;;;5.13;;
60722;SDS011;46574;52.818;6.516;2024-01-16T13:21:08;10.25;;;5.18;;
60722;SDS011;46574;52.818;6.516;2024-01-16T13:23:34;7.03;;;4.65;;
60722;SDS011;46574;52.818;6.516;2024-01-16T13:26:00;9.65;;;5.43;;
60722;SDS011;46574;52.818;6.516;2024-01-16T13:30:55;7.53;;;4.63;;
60722;SDS011;46574;52.818;6.516;2024-01-16T13:33:22;7.43;;;4.65;;
60722;SDS011;46574;52.818;6.516;2024-01-16T13:35:52;9.15;;;4.55;;
60722;SDS011;46574;52.818;6.516;2024-01-16T13:38:19;7.18;;;4.55;;
60722;SDS011;46574;52.818;6.516;2024-01-16T13:40:46;7.93;;;4.50;;
60722;SDS011;46574;52.818;6.516;2024-01-16T13:43:11;9.23;;;4.65;;
60722;SDS011;46574;52.818;6.516;2024-01-16T13:45:38;7.07;;;4.45;;
60722;SDS011;46574;52.818;6.516;2024-01-16T13:48:04;7.05;;;3.85;;
60722;SDS011;46574;52.818;6.516;2024-01-16T13:50:31;6.72;;;3.90;;
60722;SDS011;46574;52.818;6.516;2024-01-16T13:52:58;6.53;;;3.90;;
60722;SDS011;46574;52.818;6.516;2024-01-16T13:55:29;6.20;;;3.58;;
60722;SDS011;46574;52.818;6.516;2024-01-16T13:57:58;9.50;;;3.45;;
60722;SDS011;46574;52.818;6.516;2024-01-16T14:00:23;6.72;;;3.83;;
60722;SDS011;46574;52.818;6.516;2024-01-16T14:02:50;6.60;;;3.20;;
60722;SDS011;46574;52.818;6.516;2024-01-16T14:05:17;7.53;;;2.92;;
60722;SDS011;46574;52.818;6.516;2024-01-16T14:07:44;7.57;;;3.08;;
60722;SDS011;46574;52.818;6.516;2024-01-16T14:10:12;5.50;;;2.90;;
60722;SDS011;46574;52.818;6.516;2024-01-16T14:12:39;5.93;;;3.15;;
60722;SDS011;46574;52.818;6.516;2024-01-16T14:15:07;4.78;;;2.60;;
60722;SDS011;46574;52.818;6.516;2024-01-16T14:17:41;5.20;;;2.75;;
60722;SDS011;46574;52.818;6.516;2024-01-16T14:20:11;6.05;;;2.85;;
60722;SDS011;46574;52.818;6.516;2024-01-16T14:22:40;7.03;;;2.97;;
60722;SDS011;46574;52.818;6.516;2024-01-16T14:25:10;5.28;;;2.80;;
60722;SDS011;46574;52.818;6.516;2024-01-16T14:27:59;5.88;;;2.85;;
60722;SDS011;46574;52.818;6.516;2024-01-16T14:30:30;4.90;;;2.78;;
60722;SDS011;46574;52.818;6.516;2024-01-16T14:32:57;6.45;;;3.00;;
60722;SDS011;46574;52.818;6.516;2024-01-16T14:35:23;3.00;;;2.58;;
60722;SDS011;46574;52.818;6.516;2024-01-16T14:37:50;5.07;;;2.83;;
60722;SDS011;46574;52.818;6.516;2024-01-16T14:40:16;6.25;;;3.10;;
60722;SDS011;46574;52.818;6.516;2024-01-16T14:42:51;4.93;;;2.97;;
60722;SDS011;46574;52.818;6.516;2024-01-16T14:45:22;6.15;;;3.13;;
60722;SDS011;46574;52.818;6.516;2024-01-16T14:47:49;4.78;;;2.65;;
60722;SDS011;46574;52.818;6.516;2024-01-16T14:50:16;6.05;;;2.85;;
60722;SDS011;46574;52.818;6.516;2024-01-16T14:52:43;8.15;;;2.75;;
60722;SDS011;46574;52.818;6.516;2024-01-16T14:55:09;5.13;;;2.75;;
60722;SDS011;46574;52.818;6.516;2024-01-16T14:57:37;6.50;;;2.88;;
60722;SDS011;46574;52.818;6.516;2024-01-16T15:00:12;5.68;;;3.03;;
60722;SDS011;46574;52.818;6.516;2024-01-16T15:02:40;6.90;;;2.38;;
60722;SDS011;46574;52.818;6.516;2024-01-16T15:05:09;3.95;;;2.50;;
60722;SDS011;46574;52.818;6.516;2024-01-16T15:07:35;4.72;;;2.60;;
60722;SDS011;46574;52.818;6.516;2024-01-16T15:10:03;6.15;;;2.58;;
60722;SDS011;46574;52.818;6.516;2024-01-16T15:12:34;5.57;;;2.60;;